Date,TemperatureHighF,TemperatureAvgF,TemperatureLowF,DewpointHighF,DewpointAvgF,DewpointLowF,HumidityHigh,HumidityAvg,HumidityLow,PressureMaxIn,PressureMinIn,WindSpeedMaxMPH,WindSpeedAvgMPH,GustSpeedMaxMPH,PrecipitationSumIn
2013-1-1,31.8,21.7,5.4,19.9,3.8,-14.2,77,48,28,29.81,29.54,17,3,17,0.04
2013-1-2,21.4,7.5,-3.6,-0.4,-12.9,-22.4,49,38,32,29.99,29.78,17,2,17,0.00
2013-1-3,22.6,9.2,-2.2,-0.9,-12.7,-23.7,41,35,32,30.02,29.87,10,2,10,0.00
2013-1-4,33.6,17.4,-0.9,16.8,1.2,-19.4,66,49,40,29.87,29.66,13,2,13,0.00
2013-1-5,36.1,26.0,10.8,17.3,8.1,-2.2,71,47,33,30.19,29.66,22,3,22,0.00
2013-1-6,32.2,20.7,9.3,17.3,8.8,-3.6,71,60,48,30.16,29.87,6,0,6,0.00
2013-1-7,27.3,19.4,8.6,18.3,6.9,-0.7,77,58,41,30.34,29.90,10,2,10,0.00
2013-1-8,38.5,25.3,6.3,21.5,12.1,-3.0,84,58,40,30.28,30.14,17,2,17,0.04
2013-1-9,36.0,26.7,12.6,27.0,17.6,6.4,81,69,50,30.34,29.81,6,1,8,0.00
2013-1-10,44.6,34.6,24.4,26.2,20.1,11.4,80,57,35,30.46,29.81,26,4,26,0.00
2013-1-11,38.3,28.8,16.2,20.7,13.7,9.3,78,54,36,30.46,30.19,7,1,7,0.00
2013-1-12,40.1,36.5,33.3,38.0,32.8,20.6,96,86,58,30.22,30.05,6,1,6,0.04
2013-1-13,43.5,39.0,35.8,43.5,38.9,35.3,100,99,96,30.08,29.90,11,2,11,0.04
2013-1-14,56.7,43.3,35.1,56.4,35.3,16.9,100,77,40,30.16,29.78,13,3,13,0.00
2013-1-15,38.1,32.7,25.2,21.1,16.3,11.6,71,51,41,30.25,30.14,8,1,8,0.00
2013-1-16,30.0,28.8,27.5,25.6,20.4,11.5,87,72,48,30.19,29.72,8,1,8,0.00
2013-1-17,40.6,24.9,12.9,32.2,12.7,-7.4,91,63,36,30.08,29.69,14,2,14,0.16
2013-1-18,17.1,9.8,1.9,-6.7,-13.4,-21.1,39,34,28,30.34,30.05,12,2,12,0.00
2013-1-19,35.8,25.3,4.5,19.7,8.7,-20.8,73,50,29,30.28,29.81,15,2,15,0.00
2013-1-20,45.3,36.1,22.5,30.5,18.8,0.4,82,51,34,29.81,29.40,26,5,26,0.04
2013-1-21,25.7,19.1,11.7,0.4,-4.8,-8.5,40,34,26,29.99,29.78,16,3,16,0.00
2013-1-22,16.0,10.8,5.5,-3.4,-8.2,-12.3,43,41,40,29.96,29.72,16,3,16,0.08
2013-1-23,7.0,1.2,-4.9,-10.8,-16.1,-21.7,43,43,43,30.02,29.93,17,3,17,0.00
2013-1-24,11.7,2.2,-8.3,-6.5,-15.1,-25.0,43,43,43,30.05,29.84,20,4,20,0.00
2013-1-25,18.9,9.8,2.1,-4.5,-10.9,-15.2,43,38,30,30.11,29.99,17,4,17,0.00
2013-1-26,23.5,13.2,4.5,-3.6,-11.6,-17.7,40,31,27,30.05,29.93,12,3,12,0.00
2013-1-27,24.8,14.4,6.3,-0.9,-10.5,-17.9,39,31,29,30.34,30.02,15,3,15,0.00
2013-1-28,28.4,18.3,6.1,13.8,-2.4,-16.3,75,42,26,30.34,30.02,10,1,10,0.00
2013-1-29,35.8,24.0,9.7,25.6,13.6,3.1,77,65,47,30.14,29.99,7,1,7,0.04
2013-1-30,51.4,41.9,31.3,51.4,40.8,24.9,100,96,77,30.11,29.37,23,5,23,0.43
2013-1-31,57.2,52.6,31.1,55.9,49.9,6.7,100,92,35,29.37,28.81,32,10,32,0.43
2013-2-1,31.1,23.5,14.0,7.3,0.2,-6.4,40,36,29,29.96,29.34,17,4,17,0.39
2013-2-2,26.8,18.6,8.6,5.5,-2.0,-11.3,50,40,29,30.11,29.96,13,2,13,0.39
2013-2-3,28.6,23.5,18.1,10.4,6.8,4.8,66,49,38,29.99,29.63,12,3,12,0.39
2013-2-4,29.1,21.5,14.2,6.1,3.1,-11.4,61,45,28,29.78,29.57,20,4,20,0.00
2013-2-5,25.3,16.0,6.3,-4.4,-9.8,-17.3,40,30,26,29.96,29.78,13,2,13,0.00
2013-2-6,36.1,22.2,11.5,15.7,2.4,-11.9,50,42,27,30.19,29.84,11,2,15,0.00
2013-2-7,20.3,12.7,5.9,-8.4,-13.3,-19.3,32,29,25,30.52,30.19,15,3,15,0.00
2013-2-8,13.3,9.2,7.2,-14.4,-18.0,-19.8,27,27,27,30.49,29.87,20,4,20,0.00
2013-2-9,18.1,12.9,9.1,8.3,-6.8,-18.0,76,43,27,30.02,29.63,29,8,29,0.00
2013-2-10,36.0,19.5,5.0,9.0,-0.0,-9.6,57,43,27,30.28,30.02,13,2,13,0.00
2013-2-11,36.3,21.0,3.7,34.2,13.2,-8.1,95,72,53,30.25,29.49,6,0,6,0.04
2013-2-12,42.8,34.3,27.5,37.1,27.8,21.0,99,79,52,29.69,29.46,15,1,15,0.12
2013-2-13,46.0,36.7,30.6,23.1,18.5,14.8,65,48,33,29.75,29.66,13,2,13,0.00
2013-2-14,42.1,32.0,21.2,19.2,14.9,11.2,68,50,33,29.93,29.63,13,1,13,0.00
2013-2-15,45.0,32.2,20.3,30.4,21.4,12.6,86,66,43,29.93,29.81,16,2,16,0.00
2013-2-16,36.1,32.0,26.6,31.5,24.6,5.5,93,75,39,29.90,29.69,9,1,9,0.00
2013-2-17,26.6,21.3,17.1,13.4,5.3,-2.7,71,50,38,29.69,29.13,22,2,22,0.04
2013-2-18,30.0,19.9,10.9,4.7,-3.0,-8.4,41,36,30,29.93,29.37,27,7,27,0.00
2013-2-19,42.8,30.5,14.7,41.8,10.4,-7.2,97,46,23,30.02,29.52,13,3,13,0.98
2013-2-20,43.3,35.3,27.0,42.8,22.5,8.8,98,63,39,29.54,29.34,20,4,20,0.16
2013-2-21,32.5,26.7,19.8,17.5,9.1,0.9,58,47,37,30.08,29.54,17,4,17,0.00
2013-2-22,40.8,31.3,23.5,16.4,13.7,11.7,67,49,35,30.31,30.08,14,3,14,0.00
2013-2-23,36.9,29.9,22.5,29.7,22.6,13.4,91,75,57,30.28,29.96,11,1,11,0.00
2013-2-24,31.1,29.7,27.3,28.6,27.1,23.7,92,90,86,29.96,29.75,8,0,8,0.00
2013-2-25,41.5,31.2,22.3,25.5,21.7,17.1,87,69,44,30.19,29.84,10,1,10,0.28
2013-2-26,45.9,34.6,26.4,35.8,23.6,19.0,95,67,37,30.31,30.19,9,1,9,0.00
2013-2-27,38.7,30.1,25.3,30.7,23.5,19.5,93,77,47,30.19,29.66,20,3,20,0.00
2013-2-28,42.4,36.7,31.5,42.4,36.2,27.5,100,98,86,29.66,29.49,14,3,14,0.71
2013-3-1,35.6,32.7,31.1,29.9,27.1,22.7,90,80,59,29.60,29.49,12,1,12,0.00
2013-3-2,41.7,34.2,30.0,31.5,28.4,21.2,93,81,46,29.60,29.54,11,1,11,0.12
2013-3-3,41.5,35.8,33.1,36.7,29.0,20.7,99,78,59,29.57,29.46,9,1,9,0.31
2013-3-4,33.6,32.4,30.7,28.0,20.9,15.6,83,63,47,29.63,29.46,17,3,17,0.00
2013-3-5,46.8,37.7,32.2,32.8,28.3,24.8,92,70,44,30.08,29.63,15,4,15,0.08
2013-3-6,38.7,35.0,32.5,32.4,23.8,16.7,92,65,47,30.22,30.08,17,5,17,0.04
2013-3-7,36.7,33.7,31.5,17.8,16.7,15.7,55,49,44,30.16,30.05,20,6,20,0.00
2013-3-8,47.5,36.7,30.2,19.1,16.0,14.0,59,43,32,30.16,30.02,22,7,22,0.00
2013-3-9,48.9,36.5,26.1,21.1,16.4,12.9,62,45,32,30.31,30.14,17,4,17,0.00
2013-3-10,46.6,33.0,20.7,24.0,19.5,14.2,82,59,35,30.37,30.25,11,2,11,0.00
2013-3-11,44.8,38.9,33.6,36.9,29.2,24.0,87,69,47,30.25,30.11,17,4,17,0.00
2013-3-12,50.5,45.8,40.5,50.0,42.6,36.9,98,89,71,30.11,29.69,17,4,17,1.18
2013-3-13,50.2,43.1,30.9,49.4,35.1,20.1,100,76,45,29.69,29.60,13,2,13,0.04
2013-3-14,42.3,30.3,21.6,30.4,17.7,0.2,88,62,34,29.69,29.57,15,1,15,0.00
2013-3-15,35.6,25.6,16.2,9.3,3.5,-2.9,55,38,27,29.75,29.54,13,3,13,0.00
2013-3-16,36.9,28.5,21.0,16.4,8.3,1.1,75,44,27,29.87,29.57,13,2,13,0.00
2013-3-17,32.7,23.0,14.0,9.7,-0.1,-10.9,66,37,25,30.25,29.84,20,3,20,0.00
2013-3-18,37.0,24.3,10.0,11.2,-1.3,-12.7,50,33,24,30.37,30.22,14,2,14,0.00
2013-3-19,31.6,26.9,22.8,23.3,17.7,10.7,84,69,47,30.22,29.66,18,4,18,0.00
2013-3-20,37.4,27.8,17.4,19.2,16.2,10.9,84,63,38,29.66,29.54,15,3,15,0.04
2013-3-21,43.7,30.8,19.2,18.8,12.3,7.8,74,49,25,29.69,29.54,11,2,11,0.20
2013-3-22,42.3,30.0,18.9,14.8,10.7,7.3,71,46,28,29.60,29.52,12,2,14,0.00
2013-3-23,43.7,32.8,22.1,16.9,13.1,7.4,56,44,33,29.57,29.43,24,5,24,0.00
2013-3-24,47.8,37.2,27.5,20.4,17.0,13.3,62,44,33,29.72,29.57,15,3,15,0.00
2013-3-25,45.0,35.4,22.8,26.1,19.5,15.6,84,54,38,29.75,29.54,14,3,14,0.00
2013-3-26,50.2,38.1,31.5,21.5,18.4,15.3,54,45,32,29.66,29.51,15,3,15,0.00
2013-3-27,45.5,36.5,26.8,34.3,26.1,17.0,91,67,43,29.81,29.63,12,2,12,0.12
2013-3-28,51.1,40.3,32.7,38.4,28.0,21.7,95,66,33,29.93,29.81,12,1,12,0.08
2013-3-29,58.1,39.3,32.4,33.5,27.7,20.0,81,66,30,29.96,29.90,17,1,17,0.00
2013-3-30,56.8,41.5,27.9,32.9,18.7,6.3,83,45,20,30.05,29.93,13,2,13,0.00
2013-3-31,55.2,40.7,23.5,30.1,18.6,10.4,65,43,23,30.08,29.81,18,2,18,0.00
2013-4-1,55.2,42.0,30.9,40.3,33.9,14.1,96,75,46,29.81,29.46,17,3,17,0.94
2013-4-2,38.1,31.5,24.4,14.6,9.1,3.9,57,39,29,29.75,29.60,19,4,19,0.00
2013-4-3,42.8,34.1,27.7,11.1,6.1,1.8,49,31,23,29.99,29.72,25,6,25,0.00
2013-4-4,53.2,39.2,29.7,22.4,8.8,2.7,56,30,16,30.14,29.90,15,5,16,0.00
2013-4-5,59.0,43.6,34.3,22.9,16.9,8.1,59,36,19,29.90,29.60,16,4,16,0.00
2013-4-6,40.6,32.9,26.1,11.9,0.9,-7.1,36,26,18,30.28,29.75,22,4,22,0.00
2013-4-7,47.1,37.3,24.4,30.4,14.9,0.3,59,40,27,30.28,29.90,23,4,23,0.00
2013-4-8,60.3,47.8,34.7,36.7,27.0,20.3,82,49,25,30.11,29.81,14,4,14,0.00
2013-4-9,45.5,42.4,39.4,40.6,34.6,23.2,87,75,47,30.08,29.87,10,2,10,0.24
2013-4-10,58.1,45.9,39.2,47.5,36.4,29.1,94,73,37,29.93,29.84,8,1,8,0.24
2013-4-11,54.1,45.2,36.9,39.2,19.7,2.0,90,43,18,30.14,29.81,17,3,17,0.00
2013-4-12,39.0,34.6,33.1,30.7,15.6,3.0,91,51,24,30.22,29.87,12,2,12,0.28
2013-4-13,46.2,37.6,32.7,34.0,30.5,26.5,93,77,47,29.87,29.75,8,1,8,0.24
2013-4-14,53.4,42.6,35.1,39.4,31.4,24.3,88,67,36,30.14,29.84,8,1,8,0.00
2013-4-15,59.4,43.2,29.1,35.4,26.4,22.1,88,55,25,30.37,30.14,13,2,13,0.24
2013-4-16,55.0,47.6,39.9,40.7,32.0,25.2,84,57,33,30.37,29.90,26,6,26,0.00
2013-4-17,61.3,51.6,38.5,43.7,23.0,10.1,82,36,19,30.31,29.90,17,3,17,0.00
2013-4-18,51.6,41.4,32.5,27.8,17.7,13.3,50,39,24,30.43,30.11,22,2,22,0.00
2013-4-19,70.5,56.6,47.5,56.3,45.2,27.8,92,67,42,30.11,29.60,24,7,24,0.00
2013-4-20,59.9,52.9,42.1,57.9,35.8,13.6,93,59,24,30.11,29.54,24,4,24,0.63
2013-4-21,51.6,42.2,30.2,15.6,12.1,6.5,42,30,19,30.67,30.11,15,3,15,0.00
2013-4-22,54.7,39.6,26.4,22.1,13.8,5.7,66,38,16,30.79,30.64,17,2,17,0.00
2013-4-23,49.1,38.6,27.5,36.6,27.9,20.0,83,67,41,30.64,30.16,11,3,11,0.00
2013-4-24,60.3,46.7,42.1,46.3,39.0,34.9,94,76,46,30.17,29.75,13,4,13,0.08
2013-4-25,63.1,52.5,39.4,50.3,34.2,14.0,90,57,18,30.25,29.72,14,4,14,0.04
2013-4-26,63.9,47.9,32.2,25.2,20.7,17.3,60,36,18,30.40,30.25,13,2,13,0.04
2013-4-27,65.3,47.9,31.8,35.6,26.2,22.0,83,47,21,30.40,30.25,13,2,13,0.04
2013-4-28,69.1,51.9,34.0,38.3,25.1,15.5,84,42,15,30.31,30.19,15,2,16,0.04
2013-4-29,66.0,51.0,34.9,37.8,29.0,22.8,80,46,20,30.25,30.19,15,2,15,0.00
2013-4-30,71.2,54.6,36.5,43.9,29.3,13.5,88,46,19,30.34,30.22,12,2,12,0.00
2013-5-1,74.3,51.3,34.2,34.7,25.0,18.5,76,42,13,30.43,30.34,12,1,12,0.00
2013-5-2,68.0,52.7,39.4,40.5,30.4,23.9,82,45,24,30.52,30.37,13,2,13,0.00
2013-5-3,69.1,49.5,35.4,35.8,30.8,27.1,82,52,25,30.52,30.34,10,2,10,0.00
2013-5-4,66.0,49.6,37.6,41.6,31.9,23.5,87,56,20,30.37,30.31,9,2,9,0.00
2013-5-5,66.6,55.6,41.2,42.1,29.2,25.1,88,40,24,30.28,30.22,14,4,14,0.00
2013-5-6,67.3,54.1,37.8,47.3,34.6,27.9,94,53,24,30.25,30.14,17,4,17,0.00
2013-5-7,74.7,57.6,45.5,51.8,43.0,31.5,95,65,22,30.16,30.08,17,3,17,0.00
2013-5-8,76.5,62.2,47.5,59.7,48.3,42.5,94,65,31,30.22,30.11,17,3,17,0.20
2013-5-9,62.6,57.1,54.0,57.5,53.0,51.3,93,86,72,30.14,29.90,9,1,9,1.38
2013-5-10,76.3,60.2,51.3,60.4,51.0,43.2,97,75,32,29.96,29.87,10,1,10,0.00
2013-5-11,63.3,57.1,52.0,57.5,53.1,48.5,94,87,70,29.93,29.66,15,3,15,0.59
2013-5-12,63.3,58.0,44.6,61.7,53.8,34.9,97,87,56,29.72,29.52,12,1,12,0.08
2013-5-13,59.2,50.2,37.2,37.5,26.2,19.9,88,43,24,29.99,29.72,17,4,17,0.00
2013-5-14,59.2,48.6,36.7,28.6,22.9,18.8,62,38,24,30.02,29.93,13,2,13,0.00
2013-5-15,64.9,50.5,33.8,46.6,29.1,15.8,88,51,15,29.99,29.66,17,3,18,0.35
2013-5-16,77.7,60.9,48.9,57.6,40.0,24.4,95,55,15,29.78,29.54,16,3,16,0.04
2013-5-17,63.5,54.8,43.3,39.2,30.9,24.8,69,42,25,30.19,29.78,15,3,15,0.00
2013-5-18,66.7,51.9,37.9,45.2,34.4,29.7,88,55,27,30.34,30.19,11,2,11,0.04
2013-5-19,68.5,53.7,43.3,45.7,40.0,36.3,87,63,32,30.37,30.22,9,2,9,0.04
2013-5-20,72.0,58.8,50.0,58.0,51.3,45.7,95,78,43,30.22,29.90,9,1,9,1.10
2013-5-21,57.2,52.7,49.1,52.4,48.9,45.4,90,87,82,30.08,29.96,9,1,9,1.22
2013-5-22,58.5,52.2,48.7,52.2,47.2,44.6,95,84,61,30.08,29.90,8,1,8,0.59
2013-5-23,65.3,56.6,48.9,60.2,51.8,46.4,95,84,63,29.96,29.78,16,2,16,0.08
2013-5-24,65.3,59.7,49.1,62.7,56.7,45.1,95,90,79,29.87,29.66,17,3,17,1.42
2013-5-25,50.2,47.9,45.7,46.4,44.7,42.5,93,89,84,29.84,29.69,17,5,17,0.98
2013-5-26,55.4,49.3,41.4,45.8,39.2,28.8,95,71,39,29.96,29.63,12,3,12,0.39
2013-5-27,67.6,53.1,37.4,44.4,30.3,19.4,89,49,17,30.16,29.96,17,2,17,0.39
2013-5-28,74.7,55.7,38.1,46.0,31.6,23.6,89,47,16,30.22,30.16,15,1,15,0.39
2013-5-29,57.2,53.0,45.9,54.3,48.8,34.0,94,86,60,30.22,29.99,7,0,7,0.39
2013-5-30,84.9,68.0,54.3,67.1,52.6,45.3,97,65,27,30.05,29.96,10,1,10,0.39
2013-5-31,92.1,75.4,57.9,66.2,55.0,49.9,93,55,25,30.05,29.90,15,2,15,0.39
2013-6-1,91.8,74.9,61.3,67.6,56.4,48.4,92,57,28,29.93,29.84,18,1,18,0.00
2013-6-2,86.2,74.1,66.2,64.6,57.9,50.0,87,60,36,29.84,29.72,15,3,23,0.08
2013-6-3,76.8,67.4,57.9,66.7,58.7,48.0,95,76,44,29.84,29.72,15,3,15,0.00
2013-6-4,65.5,59.0,49.6,52.8,37.5,28.8,88,49,26,30.05,29.78,15,3,15,0.00
2013-6-5,73.2,60.0,46.4,42.8,34.0,26.5,77,41,19,30.16,30.05,11,2,11,0.00
2013-6-6,69.4,57.4,55.8,46.3,37.7,30.7,69,48,25,30.19,30.14,8,2,8,0.00
2013-6-7,63.0,56.3,51.8,50.4,44.0,32.9,90,67,34,30.16,29.96,8,1,8,0.75
2013-6-8,67.5,59.3,53.2,55.7,52.4,45.5,95,80,48,29.99,29.66,17,2,17,1.73
2013-6-9,73.9,64.0,55.8,57.6,52.1,44.5,92,68,38,30.16,29.99,10,1,10,0.00
2013-6-10,73.6,62.0,51.4,58.6,47.4,39.8,93,63,31,30.22,30.05,12,1,12,0.00
2013-6-11,57.2,56.0,54.9,54.4,52.6,49.7,92,88,76,30.08,29.54,10,1,11,1.57
2013-6-12,59.7,57.7,55.0,57.2,53.2,46.4,95,85,63,29.78,29.52,15,2,15,0.63
2013-6-13,72.3,60.6,51.8,60.8,46.1,34.8,94,64,26,29.81,29.72,11,1,11,0.00
2013-6-14,76.3,63.7,52.9,55.9,46.1,35.3,92,57,24,29.75,29.66,8,1,8,0.00
2013-6-15,77.0,61.9,48.9,54.7,39.5,27.9,91,52,20,29.90,29.75,13,2,13,0.00
2013-6-16,77.7,63.3,48.4,52.0,43.9,36.8,80,53,26,29.90,29.72,13,1,13,0.00
2013-6-17,82.8,66.4,54.7,62.2,52.4,44.0,93,65,27,29.90,29.72,13,1,13,0.00
2013-6-18,68.7,62.0,54.7,57.0,46.9,38.0,92,61,35,29.99,29.87,8,0,8,0.00
2013-6-19,74.5,63.9,49.3,56.4,41.5,32.8,100,51,24,30.14,29.93,12,2,12,0.00
2013-6-20,77.9,63.3,47.1,54.5,41.9,35.5,94,52,24,30.25,30.14,14,2,14,0.00
2013-6-21,81.5,65.8,52.5,58.4,48.7,39.1,100,62,24,30.22,30.16,10,1,10,0.00
2013-6-22,82.4,68.3,57.6,64.4,57.4,52.4,97,71,38,30.22,30.14,6,0,6,0.00
2013-6-23,80.2,70.7,65.5,69.6,64.0,59.0,100,82,50,30.16,29.99,11,1,11,0.08
2013-6-24,89.2,76.6,65.5,73.7,63.0,55.2,100,68,32,29.99,29.87,13,2,13,0.00
2013-6-25,91.9,77.0,67.5,68.7,62.2,55.3,100,65,31,29.90,29.75,13,2,13,0.98
2013-6-26,78.3,68.2,61.0,74.2,65.4,60.2,100,92,59,29.93,29.75,10,1,10,2.09
2013-6-27,68.4,62.3,57.6,63.5,59.6,57.2,100,92,73,29.93,29.84,6,1,10,0.04
2013-6-28,66.6,61.7,58.3,66.6,61.7,58.3,100,100,100,29.87,29.57,11,2,11,1.54
2013-6-29,72.1,67.8,63.1,70.6,65.4,59.5,100,92,76,29.72,29.57,16,1,16,0.04
2013-6-30,85.3,71.7,63.0,70.4,62.4,51.6,97,76,32,29.96,29.69,13,2,13,0.16
2013-7-1,76.3,71.3,64.4,68.5,65.5,62.3,96,82,69,30.14,29.96,5,0,5,0.04
2013-7-2,70.9,62.9,59.0,68.7,60.2,56.5,95,91,87,30.25,30.14,10,1,10,0.83
2013-7-3,82.0,68.0,59.2,67.0,60.0,54.9,96,78,44,30.22,30.14,10,1,10,0.79
2013-7-4,90.5,78.7,66.0,77.2,65.1,58.3,96,67,35,30.19,30.11,10,1,10,0.79
2013-7-5,91.2,78.6,68.9,78.2,66.7,56.7,96,72,35,30.16,30.05,10,1,10,0.28
2013-7-6,88.9,78.5,66.9,78.2,63.7,54.3,96,65,33,30.08,29.99,10,1,10,0.04
2013-7-7,87.8,76.4,65.3,65.1,58.7,49.9,85,58,29,30.02,29.96,11,1,11,0.04
2013-7-8,73.0,69.3,62.4,67.9,61.8,51.5,91,78,50,30.14,29.96,9,1,9,0.20
2013-7-9,78.4,67.7,63.9,65.7,61.1,51.5,95,81,41,30.17,30.11,9,0,9,0.20
2013-7-10,71.2,65.7,62.4,66.0,59.9,55.8,95,82,60,30.14,29.81,6,1,8,0.20
2013-7-11,79.2,71.2,64.9,72.3,66.4,60.0,97,86,55,30.02,29.78,6,0,6,0.00
2013-7-12,79.7,69.1,60.1,60.2,50.6,41.5,87,56,29,30.25,30.02,10,1,10,0.00
2013-7-13,84.0,70.8,57.6,66.7,52.1,44.4,95,57,29,30.34,30.25,9,1,9,0.00
2013-7-14,90.3,74.8,61.7,68.5,62.7,54.2,96,69,39,30.34,30.22,8,1,8,0.00
2013-7-15,92.3,80.0,65.5,77.7,67.1,63.4,100,69,41,30.22,30.11,9,1,9,0.00
2013-7-16,91.2,78.7,67.5,77.3,68.1,64.2,100,74,42,30.22,30.14,9,1,9,0.00
2013-7-17,86.2,74.2,65.8,72.3,67.1,63.8,100,81,57,30.22,30.02,13,1,13,0.20
2013-7-18,88.5,75.4,68.4,76.9,67.4,56.6,100,79,48,30.08,29.99,10,1,10,0.00
2013-7-19,91.6,79.9,69.3,77.4,69.9,62.4,100,75,47,30.02,29.69,17,3,17,0.00
2013-7-20,90.7,78.4,66.0,72.8,67.6,62.3,100,72,44,29.84,29.66,13,2,13,0.16
2013-7-21,78.1,69.1,60.4,67.2,59.0,52.6,100,74,49,30.02,29.84,10,1,10,0.00
2013-7-22,74.5,66.5,59.2,66.4,59.6,51.6,100,80,52,30.03,29.91,6,1,6,0.00
2013-7-23,69.4,64.0,59.4,69.3,64.0,59.4,100,100,98,29.91,29.50,6,0,6,1.54
2013-7-24,84.0,68.3,56.1,74.4,62.6,48.5,100,84,55,29.94,29.53,9,0,9,0.16
2013-7-25,73.8,62.7,51.6,63.5,53.9,45.8,100,75,49,30.09,29.94,10,1,10,0.20
2013-7-26,69.8,63.9,61.7,67.3,63.0,59.7,100,97,78,30.06,29.85,17,2,17,0.24
2013-7-27,83.8,71.5,61.7,70.2,61.7,57.9,100,74,46,30.00,29.85,10,1,10,0.20
2013-7-28,75.2,66.9,61.5,67.3,62.4,56.8,100,87,56,30.00,29.97,10,1,10,0.00
2013-7-29,77.7,68.0,62.2,70.2,64.9,61.7,100,91,61,30.03,29.97,9,0,9,0.51
2013-7-30,79.0,67.8,59.0,71.8,60.3,52.0,100,80,43,30.03,29.97,8,1,11,0.00
2013-7-31,82.2,69.3,56.1,67.5,57.4,52.5,100,70,39,30.09,30.00,13,0,13,0.00
2013-8-1,81.7,68.3,57.4,69.3,60.0,53.9,100,78,46,30.03,29.85,13,1,13,0.00
2013-8-2,77.7,66.8,60.6,72.5,64.1,58.4,100,92,60,29.85,29.74,8,1,14,1.42
2013-8-3,78.8,65.2,59.4,72.4,61.3,54.8,100,89,54,29.80,29.68,13,0,13,1.42
2013-8-4,78.6,65.8,55.2,67.6,58.5,54.1,100,81,46,29.80,29.71,14,1,14,0.39
2013-8-5,72.1,61.0,51.3,60.6,51.2,46.7,100,74,47,29.97,29.77,11,1,12,0.39
2013-8-6,80.4,68.5,50.7,56.8,52.1,47.2,91,58,39,30.12,29.97,12,2,12,0.00
2013-8-7,79.9,66.0,50.0,63.7,55.1,50.0,100,73,40,30.15,30.09,13,2,13,0.00
2013-8-8,73.9,66.3,61.3,68.4,64.5,58.1,100,94,76,30.09,29.97,9,2,9,0.24
2013-8-9,71.8,68.2,65.8,71.8,68.2,65.8,100,100,100,30.00,29.71,17,2,17,4.92
2013-8-10,79.9,68.9,55.6,75.0,58.9,48.0,100,74,40,29.97,29.71,14,2,14,0.20
2013-8-11,77.9,63.0,50.7,63.5,53.7,50.7,100,75,42,30.00,29.91,8,1,10,0.20
2013-8-12,82.2,65.5,55.2,66.4,57.4,54.3,100,80,39,29.97,29.85,6,0,9,0.00
2013-8-13,77.7,66.1,57.0,68.9,61.0,57.0,100,85,59,29.88,29.68,14,1,14,0.00
2013-8-14,78.1,66.1,56.8,65.3,57.3,44.2,100,77,44,29.83,29.59,12,2,12,0.00
2013-8-15,76.3,69.6,53.6,55.2,50.9,44.2,95,53,40,30.03,29.83,10,3,10,0.00
2013-8-16,81.5,64.6,52.3,64.9,54.5,50.9,100,74,39,30.15,30.03,10,1,10,0.00
2013-8-17,79.0,65.6,55.0,66.6,54.7,49.4,100,72,38,30.24,30.15,10,1,10,0.00
2013-8-18,78.1,64.8,52.0,66.2,57.0,52.0,100,79,46,30.24,30.00,8,1,8,0.00
2013-8-19,83.7,71.7,57.2,70.2,61.3,57.2,100,73,45,30.00,29.85,10,2,10,0.00
2013-8-20,80.1,67.2,60.8,70.6,61.1,56.5,100,83,50,30.03,29.91,9,1,9,0.00
2013-8-21,88.5,72.1,60.4,72.2,62.0,60.2,100,75,41,30.09,29.97,11,2,11,0.00
2013-8-22,88.7,74.0,61.2,70.9,62.7,59.5,100,72,41,29.97,29.74,13,2,13,0.00
2013-8-23,77.7,68.7,55.8,68.2,53.9,44.7,96,62,38,30.09,29.74,12,2,12,0.00
2013-8-24,77.9,62.6,48.7,58.3,49.4,44.6,100,67,35,30.27,30.09,8,1,8,0.00
2013-8-25,80.8,64.9,50.0,64.0,52.3,47.8,100,69,36,30.30,30.09,10,1,10,0.00
2013-8-26,76.3,66.8,59.2,68.4,62.9,57.2,100,89,58,30.09,29.83,9,1,9,0.04
2013-8-27,85.3,72.9,61.0,74.1,63.3,59.9,100,75,46,29.88,29.80,8,1,8,0.00
2013-8-28,87.3,71.9,61.9,70.3,63.3,58.9,100,78,44,29.97,29.85,9,1,9,0.39
2013-8-29,67.8,63.2,55.2,66.0,59.4,53.2,100,88,64,30.09,29.97,11,1,11,0.00
2013-8-30,79.3,67.0,54.3,65.1,60.2,54.3,100,81,53,29.97,29.74,10,1,10,0.00
2013-8-31,84.0,71.7,64.4,71.6,66.5,61.8,100,86,50,29.80,29.74,11,0,11,0.63
2013-9-1,85.1,73.8,68.2,78.4,67.8,61.3,100,84,46,29.91,29.74,8,1,8,0.20
2013-9-2,70.0,66.4,63.0,70.0,66.4,63.0,100,100,97,29.88,29.71,13,1,13,4.57
2013-9-3,80.4,69.9,64.0,73.6,67.1,63.5,100,92,60,29.74,29.65,10,1,11,0.04
2013-9-4,79.9,67.1,57.6,69.8,58.0,50.8,100,77,38,29.85,29.71,8,1,11,0.00
2013-9-5,68.4,58.3,46.8,61.2,50.7,39.7,100,79,40,30.09,29.83,8,1,8,0.55
2013-9-6,68.4,54.6,41.7,55.8,44.4,38.6,100,73,38,30.15,30.00,10,1,10,0.12
2013-9-7,77.0,61.7,48.2,60.6,52.4,47.9,100,76,38,30.00,29.74,11,1,11,0.00
2013-9-8,68.7,57.7,44.4,60.6,48.6,34.9,100,75,39,30.00,29.65,9,1,14,0.28
2013-9-9,67.3,54.8,40.5,53.4,43.9,39.1,100,71,38,30.15,30.00,14,2,14,0.00
2013-9-10,67.5,60.7,51.1,63.5,54.7,46.7,100,82,59,30.06,29.97,12,2,12,0.00
2013-9-11,91.6,71.5,63.0,77.4,66.6,62.3,100,87,49,30.00,29.85,23,1,23,0.35
2013-9-12,77.2,69.4,66.0,73.6,68.0,64.8,100,96,68,29.97,29.62,13,1,13,1.50
2013-9-13,70.2,65.0,57.9,70.2,64.9,57.9,100,100,93,29.68,29.56,13,1,13,1.18
2013-9-14,70.9,60.0,51.6,66.2,53.7,48.7,100,82,46,29.97,29.68,10,1,10,0.04
2013-9-15,69.1,57.0,46.0,59.7,48.6,43.6,100,77,42,30.06,29.97,11,1,11,0.00
2013-9-16,63.7,54.3,42.3,61.9,49.0,30.3,100,84,57,30.21,29.91,8,0,10,0.04
2013-9-17,66.2,50.3,36.3,45.4,38.6,29.9,99,68,38,30.33,30.21,10,1,10,0.00
2013-9-18,73.9,56.3,41.7,59.5,44.4,41.2,100,71,36,30.24,30.06,10,1,10,0.00
2013-9-19,77.5,66.9,49.3,63.9,48.3,45.2,100,54,35,30.06,29.97,10,1,10,0.00
2013-9-20,79.7,58.5,44.8,63.5,48.9,44.8,100,76,36,30.06,29.97,8,1,8,0.00
2013-9-21,68.7,61.2,54.5,60.9,56.1,49.7,100,85,52,30.00,29.74,17,3,17,0.00
2013-9-22,71.6,63.7,49.5,66.4,56.8,40.1,100,80,52,29.74,29.56,17,3,17,1.34
2013-9-23,59.2,50.4,43.7,41.8,37.2,34.2,88,62,43,29.88,29.71,14,2,14,0.00
2013-9-24,56.8,49.4,42.8,41.8,37.9,33.6,91,65,47,29.85,29.77,11,1,11,0.00
2013-9-25,64.8,53.7,42.6,51.6,42.2,38.1,100,68,41,29.91,29.80,14,2,14,0.00
2013-9-26,65.7,55.5,43.7,50.4,43.7,40.1,98,67,44,30.09,29.91,13,2,13,0.00
2013-9-27,72.0,57.9,50.2,51.2,47.5,44.4,95,70,39,30.21,30.09,10,1,10,0.00
2013-9-28,74.5,55.5,45.5,61.7,48.0,44.4,100,81,36,30.30,30.21,8,1,8,0.00
2013-9-29,71.1,60.0,46.9,63.5,45.8,40.9,100,64,37,30.18,30.09,8,1,8,0.00
2013-9-30,69.4,53.0,44.8,58.8,45.6,36.4,100,81,32,30.09,29.91,5,0,5,0.00
2013-10-1,75.9,53.3,41.7,61.1,46.1,41.7,100,82,35,29.91,29.77,12,1,12,0.00
2013-10-2,79.5,62.9,49.8,66.2,50.8,42.7,100,70,38,29.85,29.68,14,2,14,0.00
2013-10-3,75.4,59.7,47.3,55.8,45.6,42.5,98,64,33,30.00,29.85,12,1,12,0.00
2013-10-4,72.3,57.5,44.8,58.8,46.5,41.8,100,71,37,30.03,29.97,8,0,8,0.00
2013-10-5,65.7,56.2,47.8,45.5,41.8,38.8,91,60,40,30.09,30.03,8,0,8,0.00
2013-10-6,60.1,52.3,46.6,49.0,39.5,32.2,98,66,40,30.24,30.09,8,1,8,0.20
2013-10-7,68.7,59.3,49.3,67.3,58.7,48.7,100,98,87,30.15,29.74,17,3,22,0.75
2013-10-8,63.1,54.3,39.2,62.9,43.8,32.1,100,72,39,30.33,29.77,15,2,15,0.04
2013-10-9,65.3,47.9,34.9,50.2,37.1,33.3,100,71,35,30.42,30.30,9,0,9,0.04
2013-10-10,68.2,48.6,36.0,52.7,40.3,35.2,100,77,38,30.30,30.12,8,0,8,0.00
2013-10-11,73.0,54.1,43.5,56.7,46.4,43.0,100,79,37,30.12,30.06,7,0,7,0.00
2013-10-12,60.4,53.0,46.6,55.6,47.6,43.0,100,84,55,30.36,30.12,8,0,8,0.00
2013-10-13,59.2,52.3,44.8,48.7,44.3,39.5,91,75,52,30.39,30.30,6,0,6,0.00
2013-10-14,66.0,50.9,39.7,54.5,42.6,38.7,100,77,41,30.33,30.18,10,1,10,0.00
2013-10-15,70.0,56.0,47.3,60.8,48.1,43.8,100,77,41,30.24,30.15,7,1,7,0.00
2013-10-16,64.0,56.9,53.4,54.8,49.6,41.6,98,79,46,30.15,29.85,8,1,8,0.00
2013-10-17,72.1,58.8,51.1,54.7,51.0,45.2,96,78,39,29.85,29.68,8,1,9,0.00
2013-10-18,68.2,55.8,44.8,61.9,48.6,39.0,100,80,39,29.77,29.53,10,1,13,0.20
2013-10-19,66.4,50.7,40.3,47.2,40.7,37.3,99,73,35,29.85,29.71,11,1,11,0.00
2013-10-20,63.9,53.4,41.2,55.3,39.0,24.4,100,62,31,29.88,29.59,15,2,15,0.00
2013-10-21,63.3,47.8,34.3,46.1,34.7,27.8,95,64,33,30.00,29.88,10,1,10,0.00
2013-10-22,63.3,54.4,40.5,51.6,45.2,34.1,91,72,45,29.91,29.80,17,3,17,0.00
2013-10-23,56.1,43.6,33.6,48.4,34.1,30.6,100,72,40,29.56,0.00,11,1,11,0.00
2013-10-24,52.3,42.6,31.8,35.7,26.7,22.1,87,55,33,29.74,29.53,8,2,11,0.00
2013-10-25,51.6,39.3,30.6,37.0,25.4,20.3,90,59,39,30.00,29.74,12,2,12,0.00
2013-10-26,50.2,39.6,27.9,36.2,27.9,20.9,84,64,42,30.03,29.77,13,2,13,0.04
2013-10-27,57.7,45.4,35.4,41.2,31.4,22.6,89,60,39,29.91,29.71,15,2,15,0.00
2013-10-28,55.9,39.5,30.4,33.8,25.6,16.6,86,59,41,30.27,29.91,15,2,15,0.00
2013-10-29,49.1,33.1,22.8,32.2,18.6,13.1,89,58,31,30.36,30.27,6,0,8,0.00
2013-10-30,49.1,33.7,25.0,30.1,22.6,19.4,91,67,34,30.27,30.09,9,1,9,0.00
2013-10-31,57.7,38.1,25.9,57.6,34.6,20.5,100,87,64,30.15,29.50,17,1,17,0.35
2013-11-1,65.7,59.4,51.8,60.7,55.2,46.1,100,87,59,29.59,29.09,28,6,28,0.47
2013-11-2,65.8,52.1,39.4,55.0,41.6,32.9,100,71,38,29.82,29.59,12,1,12,0.04
2013-11-3,43.9,38.4,27.3,34.6,20.7,10.7,84,50,35,30.44,29.82,15,4,15,0.04
2013-11-4,41.9,30.6,23.2,17.0,13.0,10.5,67,49,33,30.74,30.44,10,1,12,0.00
2013-11-5,48.7,33.5,21.9,29.6,22.4,13.7,88,66,42,30.74,30.50,13,1,13,0.00
2013-11-6,55.6,42.6,30.0,45.1,35.7,27.9,98,78,50,30.50,30.00,15,3,15,0.00
2013-11-7,58.5,52.0,39.4,53.5,44.1,19.7,90,75,45,30.00,29.67,18,5,18,0.04
2013-11-8,47.3,39.3,31.3,24.1,19.9,16.7,61,46,37,30.00,29.79,17,3,17,0.04
2013-11-9,44.1,36.5,27.9,20.9,17.4,13.3,65,46,35,30.12,29.97,19,3,19,0.00
2013-11-10,42.4,36.1,32.0,39.6,31.0,20.9,97,82,63,30.12,29.73,6,1,6,0.04
2013-11-11,46.6,39.5,35.4,38.1,27.4,21.5,100,65,42,30.03,29.76,10,2,13,0.00
2013-11-12,41.2,33.9,25.3,25.5,16.3,7.9,57,48,40,30.12,29.82,11,4,16,0.00
2013-11-13,34.9,27.6,21.6,11.3,7.9,1.8,51,43,35,30.24,30.09,14,3,14,0.00
2013-11-14,49.6,35.0,25.7,24.4,15.7,8.3,57,45,36,30.09,30.00,12,3,12,0.00
2013-11-22,34.7,33.4,31.8,33.7,31.6,29.8,96,93,90,29.94,29.79,6,0,6,0.00
2013-11-23,41.2,34.7,23.5,35.3,18.1,9.1,99,54,36,29.82,29.67,23,4,23,0.04
2013-11-24,27.7,22.2,18.5,14.9,1.4,-2.9,58,40,36,30.00,29.67,26,7,26,0.04
2013-11-25,28.9,21.8,14.5,6.2,-0.0,-5.0,41,38,35,30.32,30.00,20,4,20,0.04
2013-11-26,32.7,30.0,25.9,28.7,19.3,5.6,90,66,38,30.29,30.18,11,2,11,0.00
2013-11-27,59.0,47.4,31.3,59.0,47.1,28.7,100,99,90,30.18,29.20,27,4,27,3.46
2013-11-28,37.4,27.2,19.2,35.7,8.7,-0.3,94,47,35,30.38,29.29,15,4,18,0.00
2013-11-29,27.7,19.4,13.1,6.9,3.1,-1.3,63,49,36,30.71,30.35,10,1,13,0.00
2013-11-30,30.0,20.5,9.7,14.2,5.4,-1.4,76,53,35,30.80,30.41,9,2,10,0.00
2013-12-1,33.1,30.8,26.8,33.1,24.8,14.0,100,79,58,30.41,30.09,6,1,7,0.20
2013-12-2,33.6,33.2,32.7,33.6,33.2,32.7,100,100,100,30.09,29.94,7,0,7,0.55
2013-12-3,40.5,34.9,29.3,40.5,34.9,29.3,100,100,100,29.94,29.85,8,1,8,0.31
2013-12-4,42.3,31.2,25.7,38.5,26.6,21.6,100,85,49,30.21,29.85,13,1,13,0.31
2013-12-5,34.9,29.9,22.5,34.2,28.4,20.2,100,94,88,30.27,29.91,5,0,5,0.08
2013-12-6,42.1,37.3,34.0,42.1,35.4,20.5,100,94,55,30.12,29.85,6,1,10,0.28
2013-12-7,38.1,31.9,23.2,24.4,12.4,1.8,71,45,35,30.41,30.06,15,3,15,0.28
2013-12-8,28.0,23.5,19.0,10.1,4.4,0.1,58,44,36,30.56,30.38,14,2,14,0.28
2013-12-9,25.3,23.1,21.2,19.3,12.5,5.0,82,65,47,30.53,29.82,9,3,9,0.28
2013-12-10,33.6,25.7,18.9,28.8,18.9,6.9,88,76,57,29.88,29.70,10,1,10,0.28
2013-12-11,30.2,20.5,11.8,12.7,8.4,4.6,74,60,40,30.12,29.88,14,2,14,0.00
2013-12-12,18.0,11.9,5.9,4.6,-5.9,-14.8,59,45,35,30.24,29.97,13,2,13,0.00
2013-12-13,26.1,12.7,1.6,6.5,-8.2,-18.8,64,38,35,30.38,29.85,21,3,21,0.00
2013-12-14,12.9,5.9,-2.6,-8.4,-14.8,-22.4,37,37,37,30.62,30.38,9,2,9,0.00
2013-12-15,16.7,10.2,6.3,7.3,-6.4,-14.1,67,48,37,30.38,29.44,20,4,20,0.00
2013-12-16,24.3,9.5,-3.1,10.4,-5.9,-18.6,73,51,37,30.18,29.65,17,2,17,0.00
2013-12-17,12.4,4.1,-11.6,-7.8,-15.4,-29.6,39,39,39,30.29,30.03,8,1,8,0.00
2013-12-18,28.8,17.5,9.5,15.3,5.8,-10.5,75,61,39,30.03,29.82,11,2,11,0.00
2013-12-19,32.0,25.3,13.6,21.3,17.7,6.9,83,73,58,30.06,29.88,9,1,9,0.00
2013-12-20,36.9,31.4,25.0,31.3,26.1,19.7,95,81,65,30.12,29.91,6,0,6,0.00
2013-12-21,31.8,28.3,23.5,30.2,26.1,21.0,95,91,86,29.94,29.82,8,2,8,0.00
2013-12-22,32.2,27.9,25.0,31.7,26.2,22.7,98,93,90,30.09,29.88,11,0,11,0.04
2013-12-23,32.5,28.9,25.5,32.4,28.1,24.3,100,97,95,30.12,29.97,0,0,0,0.00
2013-12-26,22.1,17.2,8.6,16.3,11.3,2.9,79,77,66,30.38,30.09,0,0,0,0.00
2013-12-27,31.8,20.4,8.6,24.8,14.6,2.9,86,78,70,30.18,30.09,0,0,0,0.00
2013-12-28,34.3,24.6,12.0,30.2,21.4,7.9,94,87,81,30.15,29.94,0,0,0,0.00
2013-12-29,34.5,24.9,17.8,33.8,23.2,15.4,98,93,83,30.03,29.56,0,0,0,0.00
2013-12-30,32.2,17.5,1.2,26.8,9.6,-9.8,90,72,57,30.18,29.53,0,0,0,0.00
2013-12-31,9.7,0.4,-7.4,-1.8,-10.6,-17.9,59,59,59,30.18,30.03,0,0,0,0.00
2014-1-1,19.9,3.2,-13.7,7.6,-8.0,-23.9,60,59,51,30.41,30.09,0,0,0,0.00
2014-1-2,3.2,-4.4,-8.7,-7.5,-14.7,-18.8,60,60,60,30.44,30.00,0,0,0,0.00